Time;durP1;ratioP1;P1;durP2;ratioP2;P2;SDS_P1;SDS_P2;PMS_P1;PMS_P2;Temp;Humidity;BMP_temperature;BMP_pressure;BME280_temperature;BME280_humidity;BME280_pressure;Samples;Min_cycle;Max_cycle;Signal;HPM_P1;HPM_P2
2022/10/31 00:00:04;;;;;;;16.92;10.75;;;;;;;;;;5032684;28;20032;-79
2022/10/31 00:02:36;;;;;;;16.50;9.55;;;;;;;;;;5032468;28;20045;-79
2022/10/31 00:05:02;;;;;;;14.82;10.30;;;;;;;;;;5032355;28;20432;-79
2022/10/31 00:07:27;;;;;;;14.60;9.77;;;;;;;;;;5033489;28;20075;-79
2022/10/31 00:09:52;;;;;;;13.20;9.90;;;;;;;;;;5032210;28;20025;-79
2022/10/31 00:12:18;;;;;;;14.05;9.88;;;;;;;;;;5032268;28;20116;-79
2022/10/31 00:14:43;;;;;;;13.43;9.75;;;;;;;;;;5033543;28;20029;-79
2022/10/31 00:17:09;;;;;;;13.73;10.30;;;;;;;;;;5033607;28;20047;-79
2022/10/31 00:19:34;;;;;;;15.00;10.13;;;;;;;;;;5032524;28;20116;-79
2022/10/31 00:21:59;;;;;;;16.88;9.55;;;;;;;;;;5033360;28;20025;-79
2022/10/31 00:24:25;;;;;;;16.10;9.85;;;;;;;;;;5032014;28;20470;-80
2022/10/31 00:26:50;;;;;;;16.08;9.45;;;;;;;;;;5033380;28;20021;-79
2022/10/31 00:29:16;;;;;;;17.92;10.07;;;;;;;;;;5037771;28;20427;-81
2022/10/31 00:31:41;;;;;;;15.13;9.27;;;;;;;;;;5041287;28;20025;-81
2022/10/31 00:34:06;;;;;;;16.92;9.55;;;;;;;;;;5040762;28;20068;-80
2022/10/31 00:36:33;;;;;;;15.85;8.98;;;;;;;;;;5038284;28;20105;-79
2022/10/31 00:38:59;;;;;;;16.00;9.13;;;;;;;;;;5038889;28;20138;-79
2022/10/31 00:41:24;;;;;;;14.32;9.30;;;;;;;;;;5020840;28;20032;-79
2022/10/31 00:43:50;;;;;;;13.40;9.38;;;;;;;;;;5037079;28;20021;-79
2022/10/31 00:46:15;;;;;;;12.80;9.10;;;;;;;;;;5036870;28;20465;-79
2022/10/31 00:48:41;;;;;;;15.25;9.13;;;;;;;;;;5037530;28;20025;-79
2022/10/31 00:51:08;;;;;;;16.10;9.27;;;;;;;;;;5038057;28;20036;-79
2022/10/31 00:53:34;;;;;;;16.23;9.27;;;;;;;;;;5036479;28;20025;-79
2022/10/31 00:56:00;;;;;;;15.32;9.60;;;;;;;;;;5036387;28;20049;-79
2022/10/31 00:58:27;;;;;;;18.08;8.95;;;;;;;;;;5036183;28;20041;-79
2022/10/31 01:00:56;;;;;;;15.25;8.80;;;;;;;;;;5036056;28;20043;-79
2022/10/31 01:03:25;;;;;;;16.52;8.75;;;;;;;;;;5036026;28;20026;-79
2022/10/31 01:06:21;;;;;;;13.27;8.40;;;;;;;;;;5036004;28;20020;-79
2022/10/31 01:08:47;;;;;;;17.75;8.98;;;;;;;;;;5023273;28;20083;-79
2022/10/31 01:11:17;;;;;;;11.70;8.48;;;;;;;;;;5036577;28;20094;-79
2022/10/31 01:13:42;;;;;;;;;;;;;;;;;;5036320;28;20045;-79
2022/10/31 01:16:09;;;;;;;13.45;8.00;;;;;;;;;;5037330;28;20315;-79
2022/10/31 01:18:35;;;;;;;11.45;7.88;;;;;;;;;;5019182;28;20056;-79
2022/10/31 01:21:02;;;;;;;12.75;8.13;;;;;;;;;;5019257;28;20017;-79
2022/10/31 01:23:28;;;;;;;9.95;7.63;;;;;;;;;;5035412;28;20029;-79
2022/10/31 01:26:00;;;;;;;15.00;7.78;;;;;;;;;;5035491;28;20117;-79
2022/10/31 01:28:26;;;;;;;13.80;8.70;;;;;;;;;;5035237;28;20034;-79
2022/10/31 01:30:51;;;;;;;13.10;7.80;;;;;;;;;;5035114;28;20024;-79
2022/10/31 01:33:16;;;;;;;13.20;7.40;;;;;;;;;;5035657;28;20035;-79
2022/10/31 01:35:42;;;;;;;12.65;7.70;;;;;;;;;;5035229;28;20021;-79
2022/10/31 01:38:07;;;;;;;12.05;7.75;;;;;;;;;;5036453;28;20045;-79
2022/10/31 01:40:33;;;;;;;13.23;7.57;;;;;;;;;;5035355;28;20021;-79
2022/10/31 01:42:59;;;;;;;13.38;7.45;;;;;;;;;;5018563;28;20385;-79
2022/10/31 01:45:24;;;;;;;11.63;7.55;;;;;;;;;;5034890;28;20017;-79
2022/10/31 01:47:50;;;;;;;15.20;7.55;;;;;;;;;;5034927;28;20441;-79
2022/10/31 01:50:23;;;;;;;10.95;6.95;;;;;;;;;;5036347;28;20021;-79
2022/10/31 01:52:50;;;;;;;10.35;7.22;;;;;;;;;;5035947;28;20120;-79
2022/10/31 01:55:16;;;;;;;11.70;7.30;;;;;;;;;;5035768;28;20036;-79
2022/10/31 01:57:44;;;;;;;14.15;7.00;;;;;;;;;;5036357;28;20030;-79
2022/10/31 02:00:10;;;;;;;11.52;7.22;;;;;;;;;;5036669;28;20476;-79
2022/10/31 02:02:41;;;;;;;8.63;6.50;;;;;;;;;;5036481;28;20083;-79
2022/10/31 02:05:09;;;;;;;9.85;7.15;;;;;;;;;;5034622;28;20033;-79
2022/10/31 02:07:39;;;;;;;10.45;7.13;;;;;;;;;;5034594;28;20056;-79
2022/10/31 02:10:04;;;;;;;;;;;;;;;;;;5034788;28;20048;-79
2022/10/31 02:12:31;;;;;;;12.83;6.77;;;;;;;;;;5036349;28;19905;-79
2022/10/31 02:14:59;;;;;;;13.57;7.50;;;;;;;;;;5018878;28;20264;-79
2022/10/31 02:17:26;;;;;;;12.05;7.32;;;;;;;;;;5018441;28;20020;-79
2022/10/31 02:19:51;;;;;;;10.80;6.80;;;;;;;;;;5034426;28;20025;-79
2022/10/31 02:22:19;;;;;;;9.65;6.88;;;;;;;;;;5018605;28;20029;-79
2022/10/31 02:24:51;;;;;;;13.35;7.45;;;;;;;;;;5035470;28;20025;-79
2022/10/31 02:27:21;;;;;;;13.93;7.25;;;;;;;;;;5034091;28;20025;-79
2022/10/31 02:30:06;;;;;;;9.95;6.68;;;;;;;;;;5034054;28;20101;-79
2022/10/31 02:32:35;;;;;;;12.02;6.85;;;;;;;;;;5034237;28;20032;-79
2022/10/31 02:35:24;;;;;;;9.50;6.85;;;;;;;;;;5017527;28;20083;-79
2022/10/31 02:38:06;;;;;;;9.32;6.80;;;;;;;;;;5026175;28;20037;-79
2022/10/31 02:40:42;;;;;;;14.63;7.32;;;;;;;;;;5033921;28;20021;-79
2022/10/31 02:43:28;;;;;;;10.25;7.00;;;;;;;;;;5035177;28;20068;-79
2022/10/31 02:46:12;;;;;;;11.00;6.75;;;;;;;;;;5033802;28;20067;-79
2022/10/31 02:48:39;;;;;;;13.65;6.28;;;;;;;;;;5033824;28;20037;-79
2022/10/31 02:51:05;;;;;;;12.73;7.20;;;;;;;;;;5033320;28;20075;-79
2022/10/31 02:53:34;;;;;;;12.43;6.38;;;;;;;;;;5034002;28;20064;-79
2022/10/31 02:56:13;;;;;;;11.40;6.75;;;;;;;;;;5016805;28;20043;-79
2022/10/31 02:59:05;;;;;;;13.15;6.85;;;;;;;;;;5033324;28;20044;-79
2022/10/31 03:01:44;;;;;;;10.18;6.68;;;;;;;;;;5014344;28;20038;-79
2022/10/31 03:04:24;;;;;;;14.10;7.13;;;;;;;;;;5033451;28;20036;-79
2022/10/31 03:07:03;;;;;;;13.15;7.80;;;;;;;;;;5033242;28;20018;-79
2022/10/31 03:09:47;;;;;;;11.65;7.30;;;;;;;;;;5033204;28;20061;-79
2022/10/31 03:12:13;;;;;;;14.90;7.07;;;;;;;;;;5016812;28;20075;-79
2022/10/31 03:14:53;;;;;;;12.48;7.55;;;;;;;;;;5033205;28;20377;-79
2022/10/31 03:17:31;;;;;;;14.18;6.90;;;;;;;;;;5033030;28;20038;-79
2022/10/31 03:19:58;;;;;;;11.70;7.57;;;;;;;;;;5016601;28;20029;-79
2022/10/31 03:22:26;;;;;;;15.20;7.47;;;;;;;;;;5017068;28;20010;-79
2022/10/31 03:24:52;;;;;;;13.00;7.28;;;;;;;;;;5034425;28;20032;-79
2022/10/31 03:27:22;;;;;;;9.35;6.70;;;;;;;;;;5016841;28;20025;-79
2022/10/31 03:29:49;;;;;;;14.55;7.25;;;;;;;;;;5017537;28;20033;-79
2022/10/31 03:32:34;;;;;;;12.48;7.45;;;;;;;;;;5016755;28;20028;-79
2022/10/31 03:35:01;;;;;;;11.35;7.07;;;;;;;;;;5041976;28;20037;-79
2022/10/31 03:37:27;;;;;;;11.57;6.88;;;;;;;;;;5059708;23;20409;-79
2022/10/31 03:39:53;;;;;;;12.55;8.05;;;;;;;;;;5018386;28;20033;-79
2022/10/31 03:42:23;;;;;;;13.80;7.80;;;;;;;;;;5034676;28;20053;-79
2022/10/31 03:45:11;;;;;;;11.90;7.10;;;;;;;;;;5034323;28;20025;-79
2022/10/31 03:47:41;;;;;;;16.55;7.63;;;;;;;;;;5027715;28;20563;-79
2022/10/31 03:50:08;;;;;;;10.90;6.93;;;;;;;;;;5033831;28;20557;-79
2022/10/31 03:52:36;;;;;;;18.00;7.90;;;;;;;;;;5017241;28;20034;-79
2022/10/31 03:55:10;;;;;;;16.13;7.47;;;;;;;;;;5035303;28;20018;-79
2022/10/31 03:57:39;;;;;;;10.05;6.88;;;;;;;;;;5033711;28;20436;-79
2022/10/31 04:00:05;;;;;;;10.98;6.50;;;;;;;;;;5016789;28;20035;-80
2022/10/31 04:02:34;;;;;;;8.90;6.60;;;;;;;;;;5034025;28;20036;-79
2022/10/31 04:05:00;;;;;;;10.80;6.82;;;;;;;;;;5017170;28;20026;-79
2022/10/31 04:07:28;;;;;;;10.45;6.53;;;;;;;;;;5033140;28;20529;-79
2022/10/31 04:09:53;;;;;;;12.60;7.20;;;;;;;;;;5033336;28;20028;-79
2022/10/31 04:12:20;;;;;;;12.25;6.95;;;;;;;;;;5033725;28;20022;-79
2022/10/31 04:15:06;;;;;;;11.65;7.60;;;;;;;;;;5034726;28;20030;-79
2022/10/31 04:17:34;;;;;;;13.88;8.90;;;;;;;;;;5033660;28;20087;-79
2022/10/31 04:20:00;;;;;;;12.70;7.47;;;;;;;;;;5033158;28;20028;-80
2022/10/31 04:22:27;;;;;;;16.25;8.35;;;;;;;;;;5033557;28;20022;-79
2022/10/31 04:24:52;;;;;;;13.35;7.60;;;;;;;;;;5053147;22;20103;-79
2022/10/31 04:27:18;;;;;;;16.48;8.15;;;;;;;;;;5032801;28;20124;-79
2022/10/31 04:29:43;;;;;;;16.20;8.45;;;;;;;;;;5034608;28;20030;-80
2022/10/31 04:32:08;;;;;;;20.50;8.38;;;;;;;;;;5033955;28;20025;-79
2022/10/31 04:34:34;;;;;;;12.38;7.78;;;;;;;;;;5032969;28;20045;-79
2022/10/31 04:36:59;;;;;;;14.63;8.15;;;;;;;;;;5032758;28;20022;-79
2022/10/31 04:39:24;;;;;;;13.38;7.55;;;;;;;;;;5032522;28;20063;-79
2022/10/31 04:42:09;;;;;;;10.70;6.68;;;;;;;;;;5032633;28;20105;-79
2022/10/31 04:44:35;;;;;;;12.48;7.18;;;;;;;;;;5077289;23;20085;-79
2022/10/31 04:47:00;;;;;;;13.10;7.45;;;;;;;;;;5032246;28;20036;-79
2022/10/31 04:49:25;;;;;;;12.07;7.32;;;;;;;;;;5032209;28;20136;-79
2022/10/31 04:51:51;;;;;;;9.40;6.95;;;;;;;;;;5032111;28;20026;-79
2022/10/31 04:54:17;;;;;;;9.80;7.18;;;;;;;;;;5032117;28;20030;-79
2022/10/31 04:56:45;;;;;;;10.82;7.05;;;;;;;;;;5089317;22;20501;-79
2022/10/31 04:59:16;;;;;;;10.63;6.90;;;;;;;;;;5032473;28;20062;-79
2022/10/31 05:01:47;;;;;;;8.77;6.28;;;;;;;;;;5033139;28;20026;-79
2022/10/31 05:04:13;;;;;;;9.90;6.32;;;;;;;;;;5032569;28;20025;-79
2022/10/31 05:06:38;;;;;;;12.18;6.47;;;;;;;;;;5016007;28;20010;-79
2022/10/31 05:09:03;;;;;;;11.82;6.82;;;;;;;;;;5032575;28;20144;-80
2022/10/31 05:11:29;;;;;;;8.20;6.53;;;;;;;;;;5015831;28;20032;-80
2022/10/31 05:14:01;;;;;;;12.18;6.45;;;;;;;;;;5033244;28;20036;-79
2022/10/31 05:16:46;;;;;;;10.93;6.40;;;;;;;;;;5049133;22;20055;-80
2022/10/31 05:19:47;;;;;;;8.48;6.30;;;;;;;;;;4976506;28;20503;-80
2022/10/31 05:22:32;;;;;;;11.38;6.32;;;;;;;;;;5046126;28;20046;-80
2022/10/31 05:24:58;;;;;;;10.00;6.75;;;;;;;;;;5050170;28;20419;-80
2022/10/31 05:27:24;;;;;;;10.98;7.43;;;;;;;;;;5041600;28;20389;-79
2022/10/31 05:29:50;;;;;;;14.40;7.65;;;;;;;;;;5022184;28;20030;-79
2022/10/31 05:32:15;;;;;;;12.10;8.00;;;;;;;;;;5038372;28;20024;-79
2022/10/31 05:35:01;;;;;;;10.65;7.90;;;;;;;;;;5038850;28;20040;-79
2022/10/31 05:37:45;;;;;;;14.38;7.55;;;;;;;;;;5039615;28;20044;-79
2022/10/31 05:40:12;;;;;;;14.40;8.40;;;;;;;;;;5037440;28;20021;-79
2022/10/31 05:42:39;;;;;;;18.20;8.55;;;;;;;;;;5020152;28;20076;-79
2022/10/31 05:45:05;;;;;;;15.80;8.90;;;;;;;;;;5036712;28;20026;-78
2022/10/31 05:47:49;;;;;;;11.98;8.48;;;;;;;;;;5037479;28;20465;-78
2022/10/31 05:50:38;;;;;;;13.13;7.50;;;;;;;;;;5009304;28;20042;-80
2022/10/31 05:53:08;;;;;;;;;;;;;;;;;;5036282;28;20083;-80
2022/10/31 05:55:36;;;;;;;13.10;8.45;;;;;;;;;;5035553;28;19913;-79
2022/10/31 05:58:12;;;;;;;16.27;8.07;;;;;;;;;;5037264;28;20017;-79
2022/10/31 06:00:40;;;;;;;10.15;6.80;;;;;;;;;;5035909;28;20022;-80
2022/10/31 06:03:08;;;;;;;8.63;7.07;;;;;;;;;;5036033;28;20028;-79
2022/10/31 06:05:48;;;;;;;9.35;6.80;;;;;;;;;;5021212;28;20029;-79
2022/10/31 06:08:14;;;;;;;9.93;7.53;;;;;;;;;;5035500;28;20451;-80
2022/10/31 06:10:40;;;;;;;8.70;6.68;;;;;;;;;;5035721;28;20021;-80
2022/10/31 06:13:06;;;;;;;10.82;6.70;;;;;;;;;;5019014;28;20079;-80
2022/10/31 06:15:49;;;;;;;8.55;6.40;;;;;;;;;;5020965;28;20017;-79
2022/10/31 06:18:16;;;;;;;9.80;6.90;;;;;;;;;;5019329;28;20034;-80
2022/10/31 06:20:47;;;;;;;10.60;7.20;;;;;;;;;;5035262;28;20473;-80
2022/10/31 06:23:12;;;;;;;11.13;7.40;;;;;;;;;;5036377;28;20072;-79
2022/10/31 06:25:39;;;;;;;9.27;6.90;;;;;;;;;;5034651;28;20029;-79
2022/10/31 06:28:05;;;;;;;9.43;6.72;;;;;;;;;;5034820;28;20030;-79
2022/10/31 06:30:47;;;;;;;9.18;6.60;;;;;;;;;;5036108;28;20025;-79
2022/10/31 06:33:13;;;;;;;14.30;6.75;;;;;;;;;;5019223;28;20033;-79
2022/10/31 06:35:47;;;;;;;13.52;7.22;;;;;;;;;;5034986;28;20108;-79
2022/10/31 06:38:13;;;;;;;;;;;;;;;;;;5019174;28;20052;-79
2022/10/31 06:40:41;;;;;;;10.55;7.20;;;;;;;;;;5034799;28;19905;-79
2022/10/31 06:43:19;;;;;;;11.13;7.32;;;;;;;;;;5034443;28;20056;-79
2022/10/31 06:45:45;;;;;;;16.83;8.43;;;;;;;;;;5034092;28;20469;-79
2022/10/31 06:48:20;;;;;;;16.13;9.50;;;;;;;;;;5019070;28;20025;-79
2022/10/31 06:51:08;;;;;;;20.90;11.10;;;;;;;;;;5035044;28;20041;-79
2022/10/31 06:53:34;;;;;;;19.08;9.88;;;;;;;;;;5033879;28;20108;-78
2022/10/31 06:56:00;;;;;;;21.98;10.98;;;;;;;;;;5033784;28;20022;-78
2022/10/31 06:58:25;;;;;;;19.27;11.27;;;;;;;;;;5033744;28;20045;-78
2022/10/31 07:00:54;;;;;;;19.40;11.13;;;;;;;;;;5051204;28;20022;-79
2022/10/31 07:03:20;;;;;;;23.15;12.52;;;;;;;;;;5033634;28;20169;-78
2022/10/31 07:05:46;;;;;;;22.83;12.27;;;;;;;;;;5033618;28;20535;-78
2022/10/31 07:08:12;;;;;;;22.80;13.00;;;;;;;;;;5033476;28;20041;-79
2022/10/31 07:10:39;;;;;;;22.45;12.52;;;;;;;;;;5050079;28;20060;-79
2022/10/31 07:13:06;;;;;;;17.63;11.43;;;;;;;;;;5034815;28;20168;-79
2022/10/31 07:15:34;;;;;;;18.50;10.93;;;;;;;;;;5050482;28;20473;-78
2022/10/31 07:18:05;;;;;;;16.52;10.95;;;;;;;;;;5033258;28;20044;-78
2022/10/31 07:20:32;;;;;;;16.83;10.07;;;;;;;;;;5033289;28;20029;-78
2022/10/31 07:22:58;;;;;;;17.15;10.93;;;;;;;;;;5033116;28;20493;-78
2022/10/31 07:25:24;;;;;;;17.50;11.75;;;;;;;;;;5049876;28;20030;-78
2022/10/31 07:28:14;;;;;;;21.37;11.70;;;;;;;;;;5033241;28;20028;-78
2022/10/31 07:30:39;;;;;;;20.92;12.80;;;;;;;;;;5050663;28;20037;-79
2022/10/31 07:33:04;;;;;;;27.02;13.45;;;;;;;;;;5033084;28;20108;-79
2022/10/31 07:35:48;;;;;;;20.48;11.95;;;;;;;;;;5034810;28;20075;-79
2022/10/31 07:38:17;;;;;;;20.40;12.82;;;;;;;;;;5032328;28;20065;-79
2022/10/31 07:40:43;;;;;;;18.08;12.02;;;;;;;;;;5049597;28;20045;-79
2022/10/31 07:43:10;;;;;;;19.38;12.23;;;;;;;;;;5033451;28;20075;-79
2022/10/31 07:46:00;;;;;;;18.50;11.95;;;;;;;;;;5047061;22;20060;-79
2022/10/31 07:48:46;;;;;;;18.95;11.15;;;;;;;;;;5013016;28;20037;-78
2022/10/31 07:51:32;;;;;;;13.23;10.30;;;;;;;;;;5036253;28;20076;-78
2022/10/31 07:54:16;;;;;;;18.45;11.75;;;;;;;;;;5038706;28;20035;-79
2022/10/31 07:56:41;;;;;;;18.05;10.77;;;;;;;;;;5021280;28;20104;-78
2022/10/31 07:59:08;;;;;;;17.85;11.80;;;;;;;;;;5019718;28;20026;-78
2022/10/31 08:01:33;;;;;;;19.05;11.25;;;;;;;;;;5036557;28;20366;-78
2022/10/31 08:04:21;;;;;;;17.35;11.40;;;;;;;;;;5035935;28;20480;-78
2022/10/31 08:07:05;;;;;;;20.75;12.73;;;;;;;;;;5036974;28;20095;-78
2022/10/31 08:09:34;;;;;;;20.27;12.30;;;;;;;;;;5036158;28;20072;-78
2022/10/31 08:12:04;;;;;;;22.23;13.25;;;;;;;;;;5035742;28;20075;-78
2022/10/31 08:14:31;;;;;;;20.02;12.13;;;;;;;;;;5034976;28;20036;-78
2022/10/31 08:16:57;;;;;;;17.92;12.35;;;;;;;;;;5050600;28;20473;-79
2022/10/31 08:19:28;;;;;;;22.15;12.45;;;;;;;;;;5051727;28;20037;-78
2022/10/31 08:21:55;;;;;;;20.80;13.00;;;;;;;;;;5034269;28;20103;-79
2022/10/31 08:24:21;;;;;;;19.95;12.95;;;;;;;;;;5051059;28;20071;-78
2022/10/31 08:26:47;;;;;;;20.58;12.23;;;;;;;;;;5050690;28;20034;-78
2022/10/31 08:29:12;;;;;;;21.73;12.70;;;;;;;;;;5034122;28;20026;-78
2022/10/31 08:31:40;;;;;;;19.92;12.82;;;;;;;;;;5034422;28;20053;-78
2022/10/31 08:34:24;;;;;;;14.55;9.45;;;;;;;;;;5034384;28;20084;-78
2022/10/31 08:37:08;;;;;;;17.42;11.13;;;;;;;;;;5035827;28;20076;-78
2022/10/31 08:39:43;;;;;;;17.52;11.82;;;;;;;;;;5033683;28;20484;-78
2022/10/31 08:42:09;;;;;;;18.30;10.80;;;;;;;;;;5033382;28;20385;-78
2022/10/31 08:44:34;;;;;;;18.13;10.57;;;;;;;;;;5032730;28;20056;-78
2022/10/31 08:47:02;;;;;;;21.88;11.50;;;;;;;;;;5033586;28;20079;-78
2022/10/31 08:49:31;;;;;;;27.08;13.73;;;;;;;;;;5035179;28;20025;-78
2022/10/31 08:51:56;;;;;;;19.17;13.32;;;;;;;;;;5036828;28;20477;-78
2022/10/31 08:54:25;;;;;;;21.75;12.63;;;;;;;;;;5054025;28;20465;-78
2022/10/31 08:56:55;;;;;;;22.02;12.32;;;;;;;;;;5037948;28;20065;-78
2022/10/31 08:59:30;;;;;;;15.90;10.15;;;;;;;;;;5036859;28;20060;-79
2022/10/31 09:02:22;;;;;;;16.88;9.80;;;;;;;;;;5036522;28;20086;-78
2022/10/31 09:04:50;;;;;;;16.90;9.88;;;;;;;;;;5037337;28;20052;-79
2022/10/31 09:07:16;;;;;;;18.33;11.57;;;;;;;;;;5036312;28;20473;-78
2022/10/31 09:09:41;;;;;;;17.88;10.98;;;;;;;;;;5053052;28;20059;-78
2022/10/31 09:12:07;;;;;;;19.90;10.00;;;;;;;;;;5037375;28;20018;-78
2022/10/31 09:15:01;;;;;;;18.30;11.32;;;;;;;;;;5001473;28;20626;-79
2022/10/31 09:17:34;;;;;;;19.08;12.07;;;;;;;;;;5054004;28;20117;-78
2022/10/31 09:20:18;;;;;;;21.52;12.15;;;;;;;;;;5036449;28;20021;-78
2022/10/31 09:22:43;;;;;;;22.30;13.45;;;;;;;;;;5037619;28;20026;-78
2022/10/31 09:25:09;;;;;;;21.88;13.43;;;;;;;;;;5035720;28;20018;-78
2022/10/31 09:27:37;;;;;;;20.90;12.73;;;;;;;;;;5037277;28;20053;-78
2022/10/31 09:30:03;;;;;;;21.35;12.80;;;;;;;;;;5035822;28;20087;-79
2022/10/31 09:32:28;;;;;;;20.00;11.35;;;;;;;;;;5036379;28;20061;-78
2022/10/31 09:34:54;;;;;;;22.02;12.35;;;;;;;;;;5035317;28;20025;-78
2022/10/31 09:37:20;;;;;;;28.50;14.30;;;;;;;;;;5035497;28;20025;-78
2022/10/31 09:39:45;;;;;;;29.95;15.48;;;;;;;;;;5035523;28;20025;-78
2022/10/31 09:42:49;;;;;;;30.02;15.05;;;;;;;;;;5035538;28;20033;-78
2022/10/31 09:45:22;;;;;;;20.40;10.00;;;;;;;;;;5027402;28;20084;-79
2022/10/31 09:47:54;;;;;;;26.88;12.35;;;;;;;;;;5035329;28;20378;-78
2022/10/31 09:50:33;;;;;;;21.02;12.80;;;;;;;;;;5036476;28;20107;-78
2022/10/31 09:53:13;;;;;;;18.27;10.30;;;;;;;;;;5035545;28;20105;-78
2022/10/31 09:55:44;;;;;;;22.50;13.35;;;;;;;;;;5035085;28;20472;-78
2022/10/31 09:58:14;;;;;;;20.27;10.10;;;;;;;;;;5036308;28;20037;-79
2022/10/31 10:00:40;;;;;;;24.92;13.10;;;;;;;;;;5033844;28;20033;-78
2022/10/31 10:03:21;;;;;;;23.20;12.15;;;;;;;;;;5034867;28;20017;-78
2022/10/31 10:06:01;;;;;;;21.13;12.13;;;;;;;;;;5034921;28;20032;-78
2022/10/31 10:08:42;;;;;;;16.13;9.65;;;;;;;;;;5034459;28;20071;-78
2022/10/31 10:11:38;;;;;;;13.50;8.18;;;;;;;;;;5034658;28;20065;-79
2022/10/31 10:14:21;;;;;;;16.38;8.50;;;;;;;;;;5034295;28;20503;-79
2022/10/31 10:16:58;;;;;;;17.38;9.52;;;;;;;;;;5035726;28;20381;-79
2022/10/31 10:22:21;;;;;;;13.00;8.15;;;;;;;;;;5013264;28;20050;-77
2022/10/31 10:25:01;;;;;;;21.55;9.35;;;;;;;;;;5016073;28;20101;-77
2022/10/31 10:27:36;;;;;;;14.10;8.13;;;;;;;;;;5016167;28;20117;-77
2022/10/31 10:30:03;;;;;;;15.95;9.23;;;;;;;;;;4997953;28;20037;-77
2022/10/31 10:32:30;;;;;;;18.25;9.85;;;;;;;;;;5015464;28;20018;-77
2022/10/31 10:35:01;;;;;;;13.70;8.52;;;;;;;;;;4997682;28;20029;-77
2022/10/31 10:37:30;;;;;;;19.92;10.73;;;;;;;;;;5018432;28;20026;-77
2022/10/31 10:39:59;;;;;;;18.00;9.25;;;;;;;;;;5003730;28;20025;-78
2022/10/31 10:48:09;;;;;;;15.07;8.48;;;;;;;;;;5010519;23;20046;-77
2022/10/31 10:50:36;;;;;;;12.95;7.60;;;;;;;;;;5013813;28;20437;-77
2022/10/31 10:53:20;;;;;;;19.65;9.35;;;;;;;;;;5014993;28;20053;-77
2022/10/31 10:56:12;;;;;;;18.58;7.82;;;;;;;;;;5013956;28;20034;-77
2022/10/31 10:58:39;;;;;;;13.27;7.88;;;;;;;;;;4991934;28;20038;-77
2022/10/31 11:01:09;;;;;;;14.68;8.30;;;;;;;;;;5015046;28;20092;-77
2022/10/31 11:03:35;;;;;;;19.95;9.70;;;;;;;;;;5013496;28;20030;-77
2022/10/31 11:06:01;;;;;;;22.00;9.43;;;;;;;;;;5013413;28;20373;-76
2022/10/31 11:08:27;;;;;;;13.55;7.32;;;;;;;;;;5015184;28;20079;-77
2022/10/31 11:11:17;;;;;;;18.23;8.63;;;;;;;;;;5014567;28;20029;-77
2022/10/31 11:13:48;;;;;;;11.30;6.43;;;;;;;;;;5013956;28;20026;-77
2022/10/31 11:16:13;;;;;;;;;;;;;;;;;;5015226;28;20042;-77
2022/10/31 11:18:44;;;;;;;11.70;5.77;;;;;;;;;;5014700;28;19916;-77
2022/10/31 11:21:28;;;;;;;12.80;6.82;;;;;;;;;;5014719;28;20026;-77
2022/10/31 11:24:12;;;;;;;12.65;6.55;;;;;;;;;;5013522;28;20034;-77
2022/10/31 11:26:39;;;;;;;9.63;5.82;;;;;;;;;;5014344;28;20029;-77
2022/10/31 11:29:05;;;;;;;9.35;5.93;;;;;;;;;;5014308;28;20017;-76
2022/10/31 11:31:32;;;;;;;13.25;6.53;;;;;;;;;;5013113;28;20184;-77
2022/10/31 11:34:02;;;;;;;12.68;7.43;;;;;;;;;;5013332;28;20026;-77
2022/10/31 11:36:33;;;;;;;12.95;6.60;;;;;;;;;;5012941;28;20397;-77
2022/10/31 11:38:58;;;;;;;;;;;;;;;;;;5014516;28;20030;-77
2022/10/31 11:41:26;;;;;;;8.32;6.03;;;;;;;;;;5014653;28;19912;-77
2022/10/31 11:43:54;;;;;;;9.05;5.82;;;;;;;;;;5014645;28;20030;-77
2022/10/31 11:46:21;;;;;;;8.68;5.82;;;;;;;;;;5014064;28;20029;-77
2022/10/31 11:48:48;;;;;;;11.85;5.45;;;;;;;;;;5012762;28;20054;-77
2022/10/31 11:51:20;;;;;;;11.25;5.80;;;;;;;;;;5012755;28;20034;-77
2022/10/31 11:53:55;;;;;;;13.75;6.22;;;;;;;;;;5014265;28;20034;-77
2022/10/31 11:56:21;;;;;;;9.38;5.43;;;;;;;;;;5014193;28;20042;-77
2022/10/31 11:58:57;;;;;;;13.07;5.47;;;;;;;;;;5012545;28;20585;-77
2022/10/31 12:01:27;;;;;;;10.80;5.70;;;;;;;;;;5013901;28;20068;-77
2022/10/31 12:04:06;;;;;;;12.02;6.25;;;;;;;;;;5014658;28;20049;-77
2022/10/31 12:06:38;;;;;;;9.48;6.22;;;;;;;;;;5014098;28;20091;-77
2022/10/31 12:09:16;;;;;;;12.60;6.35;;;;;;;;;;5014108;28;20030;-76
2022/10/31 12:12:00;;;;;;;8.70;5.60;;;;;;;;;;5014288;28;20141;-77
2022/10/31 12:14:44;;;;;;;11.65;5.60;;;;;;;;;;5014325;28;20450;-77
2022/10/31 12:17:19;;;;;;;10.77;6.07;;;;;;;;;;5013733;28;20128;-77
2022/10/31 12:19:45;;;;;;;8.45;5.80;;;;;;;;;;5013996;28;20113;-76
2022/10/31 12:22:19;;;;;;;11.88;7.80;;;;;;;;;;5012533;28;20100;-77
2022/10/31 12:24:52;;;;;;;13.85;7.10;;;;;;;;;;5015579;28;20021;-77
2022/10/31 12:27:56;;;;;;;15.27;6.20;;;;;;;;;;5017955;28;20054;-76
2022/10/31 12:30:26;;;;;;;11.30;5.70;;;;;;;;;;4957144;29;20031;-77
2022/10/31 12:33:14;;;;;;;11.80;6.43;;;;;;;;;;4973495;28;20046;-77
2022/10/31 12:35:53;;;;;;;11.48;6.95;;;;;;;;;;4964685;28;20029;-77
2022/10/31 12:38:28;;;;;;;9.45;5.68;;;;;;;;;;5017885;28;20041;-77
2022/10/31 12:41:01;;;;;;;9.00;6.38;;;;;;;;;;5017697;28;20037;-77
2022/10/31 12:43:36;;;;;;;12.95;5.38;;;;;;;;;;5016501;28;20030;-77
2022/10/31 12:46:04;;;;;;;9.60;5.68;;;;;;;;;;5016422;28;20099;-77
2022/10/31 12:49:05;;;;;;;11.82;6.03;;;;;;;;;;5017051;28;20049;-77
2022/10/31 12:51:34;;;;;;;12.18;5.43;;;;;;;;;;4956723;29;20035;-77
2022/10/31 12:53:59;;;;;;;10.35;5.70;;;;;;;;;;5004595;28;20034;-77
2022/10/31 12:56:24;;;;;;;12.35;5.75;;;;;;;;;;5017359;28;20116;-77
2022/10/31 12:58:53;;;;;;;8.60;5.43;;;;;;;;;;5016126;28;20508;-77
2022/10/31 13:01:21;;;;;;;12.52;6.13;;;;;;;;;;5015751;28;20489;-77
2022/10/31 13:03:49;;;;;;;11.00;5.97;;;;;;;;;;5017025;28;20022;-77
2022/10/31 13:06:17;;;;;;;13.35;7.30;;;;;;;;;;5015741;28;20377;-77
2022/10/31 13:09:02;;;;;;;13.77;6.15;;;;;;;;;;5016936;28;20026;-77
2022/10/31 13:11:30;;;;;;;12.10;6.25;;;;;;;;;;5017470;28;20041;-77
2022/10/31 13:14:00;;;;;;;9.07;6.00;;;;;;;;;;5017301;28;20026;-78
2022/10/31 13:16:37;;;;;;;9.98;5.70;;;;;;;;;;5018869;28;20100;-77
2022/10/31 13:19:17;;;;;;;8.30;5.18;;;;;;;;;;5052966;23;20136;-78
2022/10/31 13:21:56;;;;;;;9.93;5.57;;;;;;;;;;5005977;23;20339;-77
2022/10/31 13:24:28;;;;;;;9.23;5.35;;;;;;;;;;4994110;28;20061;-78
2022/10/31 13:26:54;;;;;;;14.80;5.90;;;;;;;;;;4996040;28;20113;-77
2022/10/31 13:29:29;;;;;;;12.80;6.03;;;;;;;;;;4996052;28;20018;-78
2022/10/31 13:31:54;;;;;;;10.43;5.65;;;;;;;;;;4996015;28;20118;-77
2022/10/31 13:34:49;;;;;;;9.15;5.32;;;;;;;;;;4997127;28;20087;-77
2022/10/31 13:37:33;;;;;;;8.40;5.15;;;;;;;;;;4987898;28;20483;-78
2022/10/31 13:40:06;;;;;;;13.55;5.53;;;;;;;;;;4996054;28;20526;-77
2022/10/31 13:42:37;;;;;;;12.82;5.70;;;;;;;;;;4995820;28;20041;-78
2022/10/31 13:45:16;;;;;;;9.60;5.95;;;;;;;;;;4997125;28;20156;-78
2022/10/31 13:47:42;;;;;;;14.00;6.50;;;;;;;;;;4995703;28;20050;-78
2022/10/31 13:50:31;;;;;;;12.32;6.47;;;;;;;;;;4996857;28;20106;-78
2022/10/31 13:53:10;;;;;;;11.82;6.40;;;;;;;;;;4991065;28;20046;-77
2022/10/31 13:55:35;;;;;;;11.50;6.95;;;;;;;;;;4996663;28;20026;-78
2022/10/31 13:58:03;;;;;;;15.93;8.30;;;;;;;;;;4996324;28;20462;-77
2022/10/31 14:00:34;;;;;;;17.25;8.68;;;;;;;;;;4995437;28;20478;-78
2022/10/31 14:03:00;;;;;;;18.00;7.90;;;;;;;;;;4995179;28;20023;-77
2022/10/31 14:05:33;;;;;;;17.67;8.65;;;;;;;;;;4995023;28;20601;-77
2022/10/31 14:08:00;;;;;;;18.17;9.13;;;;;;;;;;4994925;28;20035;-77
2022/10/31 14:10:46;;;;;;;17.52;9.63;;;;;;;;;;4996033;28;20049;-78
2022/10/31 14:13:21;;;;;;;17.27;9.35;;;;;;;;;;4996391;28;20026;-78
2022/10/31 14:15:58;;;;;;;17.80;9.73;;;;;;;;;;4994843;28;20030;-77
2022/10/31 14:18:29;;;;;;;22.02;10.05;;;;;;;;;;4996496;28;20034;-77
2022/10/31 14:20:54;;;;;;;21.50;10.85;;;;;;;;;;4994722;28;20030;-77
2022/10/31 14:23:43;;;;;;;25.58;11.05;;;;;;;;;;5005630;28;20061;-77
2022/10/31 14:26:20;;;;;;;22.48;10.65;;;;;;;;;;5015992;28;20084;-78
2022/10/31 14:28:46;;;;;;;20.23;10.20;;;;;;;;;;5015961;28;20034;-77
2022/10/31 14:31:31;;;;;;;24.10;11.35;;;;;;;;;;4997818;28;20029;-78
2022/10/31 14:33:58;;;;;;;31.98;12.30;;;;;;;;;;5014728;28;20373;-78
2022/10/31 14:36:41;;;;;;;32.85;12.85;;;;;;;;;;5015314;28;20052;-77
2022/10/31 14:39:07;;;;;;;29.48;12.15;;;;;;;;;;5013918;28;20065;-78
2022/10/31 14:41:45;;;;;;;24.15;11.93;;;;;;;;;;5015467;28;20060;-77
2022/10/31 14:44:29;;;;;;;23.85;11.23;;;;;;;;;;4997647;28;20068;-78
2022/10/31 14:47:07;;;;;;;25.92;11.02;;;;;;;;;;5013945;28;20068;-78
2022/10/31 14:49:43;;;;;;;22.92;10.02;;;;;;;;;;5015323;28;20025;-78
2022/10/31 14:52:08;;;;;;;33.28;14.25;;;;;;;;;;5014964;28;20429;-78
2022/10/31 14:54:36;;;;;;;36.30;15.40;;;;;;;;;;5015241;28;20036;-77
2022/10/31 14:57:07;;;;;;;34.03;14.77;;;;;;;;;;5013602;28;20026;-78
2022/10/31 14:59:35;;;;;;;24.80;12.43;;;;;;;;;;5014789;28;20033;-77
2022/10/31 15:02:10;;;;;;;28.50;12.73;;;;;;;;;;5014811;28;20477;-78
2022/10/31 15:04:36;;;;;;;26.30;12.32;;;;;;;;;;5014330;28;20037;-78